Terminal Aerodrome Forecast
Issued by NWS

Home | Current Version | Previous Version | Text Only | Print | Product List | Glossary On
Versions: 1 2 3 4 5 6 7 8 9 10 11
190
FTAK31 PAJN 250526
TAFAYA
TAF
PAYA 250526Z 2506/2606 08005KT P6SM -SHRA BKN015 OVC035
      TEMPO 2506/2510 VRB03KT 5SM -SHRA BR FEW005 OVC009
     FM251300 VRB03KT 6SM BR VCSH FEW005 BKN025 OVC050
     FM251800 VRB03KT P6SM SCT025 BKN050
     FM252300 34004KT P6SM SCT050
      AMD LTD TO CLD VIS AND WIND 2506/2509=

USA.gov is the U.S. government's official web portal to all federal, state and local government web resources and services.